Time;durP1;ratioP1;P1;durP2;ratioP2;P2;SDS_P1;SDS_P2;PMS_P1;PMS_P2;Temp;Humidity;BMP_temperature;BMP_pressure;BME280_temperature;BME280_humidity;BME280_pressure;Samples;Min_cycle;Max_cycle;Signal;HPM_P1;HPM_P2
2022/07/13 00:02:23;;;;;;;6.43;3.88;;;;;;;19.45;73.21;99417.63;5103849;28;20031;-63
2022/07/13 00:04:49;;;;;;;6.82;4.47;;;;;;;19.45;73.02;99417.63;5103682;28;20027;-64
2022/07/13 00:07:14;;;;;;;8.15;3.92;;;;;;;19.44;73.53;99415.91;5103705;28;20200;-64
2022/07/13 00:09:40;;;;;;;5.05;4.00;;;;;;;19.34;74.46;99413.94;5103885;28;20058;-64
2022/07/13 00:12:06;;;;;;;7.05;4.00;;;;;;;19.30;74.01;99416.78;5103782;28;20035;-63
2022/07/13 00:14:31;;;;;;;6.30;4.35;;;;;;;19.22;74.84;99418.19;5103573;28;20020;-63
2022/07/13 00:16:57;;;;;;;7.03;4.20;;;;;;;19.25;74.05;99415.38;5103798;28;20024;-63
2022/07/13 00:19:23;;;;;;;6.63;4.30;;;;;;;19.15;74.52;99401.97;5103281;28;20048;-63
2022/07/13 00:21:49;;;;;;;6.03;4.20;;;;;;;19.19;74.58;99413.97;5103178;28;20028;-64
2022/07/13 00:24:15;;;;;;;8.43;4.97;;;;;;;19.17;74.68;99417.63;5103043;28;20032;-64
2022/07/13 00:26:41;;;;;;;5.00;4.28;;;;;;;19.12;75.45;99412.66;5103213;28;20046;-63
2022/07/13 00:29:07;;;;;;;8.38;4.05;;;;;;;19.18;74.55;99414.91;5119942;28;20076;-63
2022/07/13 00:31:32;;;;;;;5.18;4.40;;;;;;;19.14;75.54;99409.00;5106762;28;20261;-63
2022/07/13 00:33:58;;;;;;;4.78;4.25;;;;;;;19.03;75.21;99406.19;5103156;28;20058;-64
2022/07/13 00:36:23;;;;;;;6.05;4.05;;;;;;;19.02;76.08;99407.13;5102933;28;20024;-62
2022/07/13 00:38:49;;;;;;;4.85;3.78;;;;;;;19.04;76.19;99415.75;5102910;28;20028;-62
2022/07/13 00:41:15;;;;;;;5.57;4.53;;;;;;;19.05;76.00;99412.19;5102934;28;20031;-64
2022/07/13 00:43:40;;;;;;;7.28;4.30;;;;;;;19.05;75.88;99417.44;5103093;28;20020;-62
2022/07/13 00:46:06;;;;;;;7.93;4.30;;;;;;;18.98;76.62;99418.75;5102714;28;20027;-63
2022/07/13 00:48:33;;;;;;;6.07;4.72;;;;;;;19.01;76.23;99413.34;5103275;28;20505;-62
2022/07/13 00:50:59;;;;;;;7.25;4.10;;;;;;;18.89;76.14;99403.56;5103015;28;20032;-63
2022/07/13 00:53:25;;;;;;;5.45;3.92;;;;;;;18.94;76.91;99419.88;5102803;28;20061;-63
2022/07/13 00:55:51;;;;;;;8.05;4.40;;;;;;;18.93;76.46;99426.06;5102793;28;20020;-63
2022/07/13 00:58:16;;;;;;;6.75;4.55;;;;;;;18.88;76.59;99417.63;5102377;28;20024;-63
2022/07/13 01:00:43;;;;;;;5.78;4.32;;;;;;;18.85;77.13;99421.22;5102560;28;20043;-63
2022/07/13 01:03:09;;;;;;;5.82;3.97;;;;;;;18.96;76.33;99418.00;5101600;28;20024;-63
2022/07/13 01:05:34;;;;;;;9.30;4.70;;;;;;;18.96;76.33;99415.38;5102737;28;20024;-63
2022/07/13 01:08:03;;;;;;;8.15;4.68;;;;;;;18.97;76.44;99409.22;5082714;28;20036;-63
2022/07/13 01:10:29;;;;;;;8.85;4.40;;;;;;;18.80;76.22;99376.91;5098203;28;20051;-63
2022/07/13 01:12:55;;;;;;;6.53;4.15;;;;;;;19.01;76.18;99408.09;5102650;28;20075;-64
2022/07/13 01:15:22;;;;;;;6.28;4.28;;;;;;;18.93;76.63;99400.66;5102338;28;20058;-64
2022/07/13 01:17:47;;;;;;;9.68;4.53;;;;;;;18.92;76.29;99393.72;5102074;28;20036;-63
2022/07/13 01:20:15;;;;;;;7.20;4.65;;;;;;;18.96;76.98;99402.25;5102621;28;20052;-63
2022/07/13 01:22:45;;;;;;;11.27;5.20;;;;;;;18.95;76.59;99413.69;5102369;28;20380;-63
2022/07/13 01:25:11;;;;;;;7.00;4.90;;;;;;;18.91;77.11;99396.44;5101120;28;20024;-63
2022/07/13 01:27:38;;;;;;;6.10;5.07;;;;;;;18.64;77.32;99368.28;5106448;28;20069;-63
2022/07/13 01:30:05;;;;;;;6.78;4.95;;;;;;;18.54;77.13;99343.53;5118994;28;20039;-63
2022/07/13 01:32:42;;;;;;;10.20;5.28;;;;;;;18.89;77.31;99403.56;5101237;28;20031;-63
2022/07/13 01:35:08;;;;;;;8.52;5.22;;;;;;;18.86;77.22;99399.31;5102420;28;20031;-63
2022/07/13 01:37:34;;;;;;;7.72;5.30;;;;;;;18.90;76.87;99394.78;5101968;28;20055;-63
2022/07/13 01:39:59;;;;;;;7.50;4.80;;;;;;;18.95;77.01;99401.44;5102356;28;20020;-63
2022/07/13 01:42:25;;;;;;;12.07;5.10;;;;;;;18.99;76.75;99407.31;5102014;28;20121;-63
2022/07/13 01:44:51;;;;;;;6.55;4.70;;;;;;;19.03;76.45;99394.88;5102325;28;20047;-63
2022/07/13 01:47:17;;;;;;;7.20;5.50;;;;;;;19.04;76.63;99393.91;5097435;28;20215;-63
2022/07/13 01:49:43;;;;;;;9.32;5.60;;;;;;;18.96;77.29;99397.00;5099516;28;20028;-63
2022/07/13 01:52:08;;;;;;;5.63;5.00;;;;;;;18.96;77.65;99397.00;5101257;28;20040;-63
2022/07/13 01:54:34;;;;;;;9.52;5.15;;;;;;;18.90;77.41;99395.59;5102029;28;20024;-64
2022/07/13 01:57:00;;;;;;;7.30;5.40;;;;;;;18.91;76.89;99397.31;5101010;28;20080;-63
2022/07/13 01:59:25;;;;;;;7.53;5.28;;;;;;;18.79;76.74;99372.59;5102016;28;20032;-64
2022/07/13 02:01:51;;;;;;;9.13;5.35;;;;;;;18.95;76.25;99400.56;5104896;28;20331;-64
2022/07/13 02:04:16;;;;;;;7.90;5.32;;;;;;;18.89;77.36;99393.91;5105991;28;20020;-64
2022/07/13 02:06:42;;;;;;;7.45;5.25;;;;;;;18.83;77.82;99389.00;5105820;28;20032;-63
2022/07/13 02:09:08;;;;;;;5.88;5.20;;;;;;;18.86;77.73;99391.44;5106014;28;20066;-63
2022/07/13 02:11:34;;;;;;;7.63;5.00;;;;;;;18.87;77.84;99392.31;5105781;28;20087;-63
2022/07/13 02:13:59;;;;;;;7.63;5.47;;;;;;;18.82;78.63;99392.56;5105891;28;20020;-63
2022/07/13 02:16:25;;;;;;;7.85;5.10;;;;;;;18.81;78.06;99390.88;5105646;28;20305;-63
2022/07/13 02:18:51;;;;;;;8.68;5.30;;;;;;;18.87;77.41;99394.94;5104386;28;20039;-63
2022/07/13 02:21:16;;;;;;;6.72;4.38;;;;;;;18.87;77.18;99394.94;5105918;28;20209;-63
2022/07/13 02:23:42;;;;;;;8.30;5.10;;;;;;;18.96;76.72;99397.84;5105652;28;20051;-63
2022/07/13 02:26:07;;;;;;;9.18;4.60;;;;;;;18.98;76.70;99397.75;5105673;28;20067;-63
2022/07/13 02:28:33;;;;;;;8.50;4.75;;;;;;;18.98;76.65;99395.13;5117410;28;20473;-63
2022/07/13 02:30:59;;;;;;;9.55;5.00;;;;;;;18.99;76.42;99399.44;5114777;28;20031;-63
2022/07/13 02:33:25;;;;;;;7.38;5.22;;;;;;;19.05;76.21;99390.34;5105449;28;20255;-63
2022/07/13 02:35:50;;;;;;;9.65;4.70;;;;;;;19.11;76.63;99397.84;5105437;28;20024;-63
2022/07/13 02:38:16;;;;;;;9.45;5.30;;;;;;;19.11;76.71;99396.06;5105290;28;20336;-63
2022/07/13 02:40:41;;;;;;;12.82;5.20;;;;;;;19.11;76.73;99390.81;5105240;28;20023;-63
2022/07/13 02:43:07;;;;;;;15.02;6.20;;;;;;;19.17;76.43;99380.88;5104125;28;20028;-63
2022/07/13 02:45:33;;;;;;;10.18;5.90;;;;;;;19.18;76.45;99378.16;5105070;28;20016;-64
2022/07/13 02:47:59;;;;;;;8.95;5.32;;;;;;;19.28;76.43;99391.53;5105184;28;20028;-63
2022/07/13 02:50:24;;;;;;;11.27;5.03;;;;;;;19.33;76.27;99386.84;5105371;28;20450;-63
2022/07/13 02:52:53;;;;;;;8.43;4.95;;;;;;;19.39;76.62;99386.47;5105016;28;20031;-63
2022/07/13 02:55:19;;;;;;;8.65;5.70;;;;;;;19.45;76.60;99386.09;5104904;28;20185;-63
2022/07/13 02:57:46;;;;;;;14.00;7.47;;;;;;;19.42;76.10;99378.38;5104937;28;20062;-63
2022/07/13 03:00:12;;;;;;;13.23;7.80;;;;;;;19.48;75.13;99375.41;5104967;28;20019;-63
2022/07/13 03:02:38;;;;;;;13.55;7.00;;;;;;;19.63;73.60;99388.50;5105041;28;20406;-63
2022/07/13 03:05:04;;;;;;;13.00;7.68;;;;;;;19.57;72.71;99383.63;5104775;28;20028;-63
2022/07/13 03:07:30;;;;;;;11.52;7.35;;;;;;;19.63;72.05;99388.50;5104152;28;20260;-63
2022/07/13 03:09:57;;;;;;;13.15;6.80;;;;;;;19.78;72.20;99392.75;5104683;28;20043;-63
2022/07/13 03:12:22;;;;;;;13.77;7.35;;;;;;;19.83;71.07;99403.84;5103448;28;20111;-63
2022/07/13 03:14:48;;;;;;;14.90;6.80;;;;;;;19.90;70.59;99401.66;5104806;28;20336;-63
2022/07/13 03:17:14;;;;;;;14.27;6.93;;;;;;;19.85;70.61;99395.03;5104904;28;20070;-64
2022/07/13 03:19:39;;;;;;;11.80;6.57;;;;;;;19.71;70.67;99398.50;5104404;28;20046;-65
2022/07/13 03:22:05;;;;;;;11.15;7.00;;;;;;;19.78;71.07;99403.28;5086634;28;20343;-64
2022/07/13 03:24:31;;;;;;;12.77;6.95;;;;;;;19.93;70.44;99395.38;5104307;28;20032;-64
2022/07/13 03:26:57;;;;;;;9.25;6.60;;;;;;;20.11;69.70;99396.78;5104345;28;20101;-64
2022/07/13 03:29:23;;;;;;;10.20;6.32;;;;;;;20.14;69.48;99404.47;5102018;28;20032;-65
2022/07/13 03:31:48;;;;;;;13.20;6.70;;;;;;;20.23;69.08;99402.19;5104246;28;20020;-64
2022/07/13 03:34:14;;;;;;;12.68;6.55;;;;;;;20.28;68.36;99395.69;5104434;28;20016;-64
2022/07/13 03:36:39;;;;;;;10.75;6.35;;;;;;;20.47;68.44;99410.22;5103033;28;20036;-65
2022/07/13 03:39:05;;;;;;;10.77;7.13;;;;;;;20.39;68.46;99413.34;5103851;28;20028;-64
2022/07/13 03:41:30;;;;;;;11.15;6.80;;;;;;;20.33;69.14;99398.81;5103996;28;20319;-64
2022/07/13 03:43:56;;;;;;;8.45;6.60;;;;;;;20.31;69.59;99406.00;5104043;28;20031;-62
2022/07/13 03:46:22;;;;;;;10.57;6.80;;;;;;;20.32;69.87;99406.81;5104007;28;20070;-63
2022/07/13 03:48:47;;;;;;;11.52;6.78;;;;;;;20.42;69.45;99402.66;5103977;28;20335;-63
2022/07/13 03:51:13;;;;;;;10.07;6.60;;;;;;;20.42;69.42;99397.41;5103921;28;20027;-62
2022/07/13 03:53:38;;;;;;;14.35;7.10;;;;;;;20.33;69.46;99401.47;5104039;28;20085;-62
2022/07/13 03:56:05;;;;;;;8.88;7.05;;;;;;;20.59;69.64;99390.97;5103234;28;20036;-62
2022/07/13 03:58:31;;;;;;;11.20;7.60;;;;;;;20.56;69.68;99399.06;5103747;28;20041;-63
2022/07/13 04:00:57;;;;;;;10.25;7.45;;;;;;;20.74;69.18;99383.03;5103454;28;20137;-62
2022/07/13 04:03:23;;;;;;;11.25;7.50;;;;;;;20.54;69.41;99390.47;5103601;28;20059;-62
2022/07/13 04:05:48;;;;;;;8.82;6.95;;;;;;;20.84;69.01;99392.81;5097879;28;20258;-62
2022/07/13 04:08:14;;;;;;;11.73;7.55;;;;;;;20.92;68.75;99399.31;5103622;28;20027;-62
2022/07/13 04:10:39;;;;;;;11.93;6.93;;;;;;;21.04;68.59;99398.50;5103540;28;20246;-62
2022/07/13 04:13:05;;;;;;;10.80;7.70;;;;;;;21.11;68.39;99414.72;5102017;28;20024;-62
2022/07/13 04:15:31;;;;;;;12.05;8.23;;;;;;;21.23;67.75;99408.56;5103162;28;20031;-62
2022/07/13 04:17:56;;;;;;;10.95;8.07;;;;;;;21.34;68.30;99407.81;5103297;28;20388;-62
2022/07/13 04:20:22;;;;;;;13.70;8.35;;;;;;;21.40;68.41;99404.75;5103456;28;20038;-63
2022/07/13 04:22:48;;;;;;;9.80;7.40;;;;;;;21.42;67.81;99405.50;5102206;28;20087;-62
2022/07/13 04:25:13;;;;;;;13.90;8.52;;;;;;;21.31;67.76;99406.25;5102946;28;20039;-62
2022/07/13 04:27:39;;;;;;;15.40;9.02;;;;;;;21.16;68.32;99413.44;5103144;28;20263;-62
2022/07/13 04:30:05;;;;;;;13.38;9.20;;;;;;;21.22;68.21;99412.16;5103364;28;20250;-62
2022/07/13 04:32:30;;;;;;;18.52;8.95;;;;;;;21.27;67.40;99409.22;5103347;28;20034;-61
2022/07/13 04:34:56;;;;;;;14.48;9.18;;;;;;;21.46;67.34;99408.72;5103398;28;20208;-63
2022/07/13 04:37:22;;;;;;;13.18;8.55;;;;;;;21.15;67.53;99409.13;5102746;28;20070;-63
2022/07/13 04:39:47;;;;;;;11.70;8.30;;;;;;;20.92;67.92;99400.19;5103004;28;20035;-63
2022/07/13 04:42:13;;;;;;;16.25;8.82;;;;;;;21.05;67.71;99400.19;5102784;28;20106;-62
2022/07/13 04:44:39;;;;;;;15.70;7.63;;;;;;;21.19;67.86;99407.09;5102981;28;20048;-64
2022/07/13 04:47:04;;;;;;;8.95;7.35;;;;;;;21.34;67.30;99397.28;5102463;28;20024;-63
2022/07/13 04:49:30;;;;;;;13.70;7.32;;;;;;;21.40;67.19;99404.75;5102510;28;20055;-63
2022/07/13 04:51:55;;;;;;;11.63;7.55;;;;;;;21.44;67.49;99406.22;5101788;28;20212;-63
2022/07/13 04:54:21;;;;;;;14.30;7.40;;;;;;;21.48;67.31;99399.78;5101364;28;20043;-64
2022/07/13 04:56:48;;;;;;;16.80;8.35;;;;;;;21.51;67.39;99398.72;5102555;28;20020;-63
2022/07/13 04:59:15;;;;;;;13.45;7.13;;;;;;;21.57;67.89;99406.19;5080851;28;20048;-64
2022/07/13 05:01:41;;;;;;;13.05;8.02;;;;;;;21.80;66.68;99407.16;5096764;28;20048;-63
2022/07/13 05:04:07;;;;;;;12.93;7.47;;;;;;;21.96;65.56;99398.16;5102931;28;20205;-63
2022/07/13 05:06:33;;;;;;;11.68;7.22;;;;;;;22.06;65.83;99404.41;5102536;28;20263;-63
2022/07/13 05:08:59;;;;;;;16.15;6.65;;;;;;;22.11;65.08;99402.28;5102594;28;20030;-63
2022/07/13 05:11:24;;;;;;;13.25;6.20;;;;;;;22.25;64.27;99398.63;5102511;28;20016;-63
2022/07/13 05:13:51;;;;;;;11.10;5.45;;;;;;;22.39;64.54;99397.63;5102847;28;20062;-63
2022/07/13 05:16:16;;;;;;;10.35;5.75;;;;;;;22.40;62.57;99400.16;5102300;28;20189;-62
2022/07/13 05:18:42;;;;;;;8.50;4.85;;;;;;;22.66;62.63;99401.75;5102073;28;20316;-63
2022/07/13 05:21:08;;;;;;;13.07;5.68;;;;;;;22.70;62.18;99392.63;5101301;28;20035;-63
2022/07/13 05:23:34;;;;;;;10.57;5.25;;;;;;;22.73;60.91;99381.84;5101996;28;20319;-63
2022/07/13 05:26:01;;;;;;;8.50;4.88;;;;;;;22.93;60.88;99380.28;5101772;28;20039;-63
2022/07/13 05:28:26;;;;;;;7.40;5.07;;;;;;;23.35;60.73;99379.72;5112891;28;20035;-63
2022/07/13 05:30:52;;;;;;;8.20;4.57;;;;;;;23.15;60.80;99379.50;5113390;28;20278;-63
2022/07/13 05:33:19;;;;;;;12.73;4.60;;;;;;;23.24;60.02;99364.72;5102024;28;20024;-63
2022/07/13 05:35:45;;;;;;;8.10;4.07;;;;;;;23.35;59.69;99379.72;5103491;28;20066;-63
2022/07/13 05:38:10;;;;;;;6.05;4.63;;;;;;;23.20;58.28;99366.75;5106401;28;20020;-63
2022/07/13 05:40:36;;;;;;;6.10;4.03;;;;;;;23.23;58.54;99376.22;5106676;28;20181;-63
2022/07/13 05:43:02;;;;;;;6.95;4.10;;;;;;;23.44;58.71;99373.69;5106332;28;20027;-64
2022/07/13 05:45:27;;;;;;;7.43;4.80;;;;;;;23.37;57.95;99365.41;5106217;28;20051;-64
2022/07/13 05:47:53;;;;;;;4.70;4.10;;;;;;;23.58;58.94;99373.41;5106438;28;20250;-64
2022/07/13 05:50:18;;;;;;;7.55;4.00;;;;;;;23.50;59.09;99372.34;5106473;28;20031;-63
2022/07/13 05:52:44;;;;;;;9.45;4.25;;;;;;;23.40;57.17;99373.09;5106220;28;20019;-62
2022/07/13 05:55:11;;;;;;;6.07;4.30;;;;;;;23.50;56.87;99373.22;5106344;28;20073;-63
2022/07/13 05:57:37;;;;;;;7.05;4.30;;;;;;;23.20;57.67;99365.91;5106188;28;20039;-63
2022/07/13 06:00:11;;;;;;;7.38;3.95;;;;;;;23.46;57.54;99369.13;5106135;28;20090;-63
2022/07/13 06:02:40;;;;;;;5.55;3.63;;;;;;;23.55;56.75;99370.19;5106199;28;20410;-63
2022/07/13 06:05:06;;;;;;;4.93;3.55;;;;;;;23.74;57.90;99367.72;5106079;28;20043;-64
2022/07/13 06:07:32;;;;;;;5.75;3.63;;;;;;;23.72;59.00;99368.81;5105973;28;20032;-63
2022/07/13 06:10:00;;;;;;;4.15;3.58;;;;;;;23.81;57.27;99365.41;5105847;28;20331;-64
2022/07/13 06:12:26;;;;;;;7.75;4.20;;;;;;;23.71;57.10;99370.59;5105804;28;20031;-64
2022/07/13 06:14:54;;;;;;;7.22;4.30;;;;;;;23.75;57.08;99371.22;5105758;28;20055;-63
2022/07/13 06:17:21;;;;;;;8.85;4.35;;;;;;;23.70;56.36;99368.09;5104501;28;20020;-63
2022/07/13 06:19:46;;;;;;;7.05;4.05;;;;;;;23.94;57.13;99360.84;5105354;28;20020;-63
2022/07/13 06:22:12;;;;;;;8.63;4.10;;;;;;;24.08;56.97;99358.84;5105869;28;20217;-63
2022/07/13 06:24:38;;;;;;;6.88;4.35;;;;;;;24.04;57.34;99362.69;5105824;28;20032;-63
2022/07/13 06:27:04;;;;;;;8.18;4.35;;;;;;;24.03;57.16;99364.53;5105350;28;20059;-64
2022/07/13 06:29:30;;;;;;;6.57;4.13;;;;;;;24.04;55.92;99363.56;5125517;28;20228;-63
2022/07/13 06:31:55;;;;;;;5.22;3.38;;;;;;;23.73;54.92;99355.47;5108765;28;20020;-63
2022/07/13 06:34:21;;;;;;;5.63;3.85;;;;;;;23.94;54.61;99357.34;5105378;28;20020;-64
2022/07/13 06:36:47;;;;;;;5.55;2.80;;;;;;;24.02;54.13;99362.00;5105186;28;20549;-63
2022/07/13 06:39:12;;;;;;;7.32;3.30;;;;;;;24.11;54.63;99362.09;5104957;28;20035;-64
2022/07/13 06:41:38;;;;;;;6.13;2.80;;;;;;;24.12;52.88;99349.69;5105383;28;20074;-64
2022/07/13 06:44:04;;;;;;;4.05;2.78;;;;;;;24.11;53.19;99355.94;5104125;28;20061;-63
2022/07/13 06:46:29;;;;;;;4.32;2.72;;;;;;;24.34;52.31;99358.47;5104839;28;20366;-64
2022/07/13 06:48:55;;;;;;;6.90;2.33;;;;;;;24.12;51.75;99362.91;5105227;28;20338;-64
2022/07/13 06:51:20;;;;;;;3.97;2.22;;;;;;;24.33;52.06;99354.13;5104965;28;20024;-63
2022/07/13 06:53:46;;;;;;;3.17;2.25;;;;;;;24.45;52.91;99339.84;5104912;28;20093;-63
2022/07/13 06:56:12;;;;;;;4.78;2.30;;;;;;;24.47;51.16;99348.53;5103864;28;20039;-64
2022/07/13 06:58:37;;;;;;;3.70;2.20;;;;;;;24.47;51.69;99341.41;5104947;28;20089;-64
2022/07/13 07:01:04;;;;;;;4.55;2.38;;;;;;;24.60;52.66;99335.94;5104635;28;20020;-64
2022/07/13 07:03:30;;;;;;;5.35;2.60;;;;;;;24.55;52.77;99339.91;5095633;28;20095;-63
2022/07/13 07:05:56;;;;;;;5.70;2.58;;;;;;;24.34;51.95;99351.34;5104864;28;20165;-63
2022/07/13 07:08:22;;;;;;;4.03;2.40;;;;;;;24.20;52.27;99346.38;5104572;28;20312;-63
2022/07/13 07:10:48;;;;;;;5.07;2.50;;;;;;;24.41;52.24;99346.38;5104161;28;20301;-64
2022/07/13 07:13:14;;;;;;;4.32;2.42;;;;;;;24.60;51.84;99335.94;5099481;28;20031;-64
2022/07/13 07:15:40;;;;;;;2.47;2.28;;;;;;;24.64;50.95;99339.16;5090541;28;20091;-63
2022/07/13 07:18:06;;;;;;;4.40;2.30;;;;;;;24.58;51.12;99342.28;5104435;28;20102;-63
2022/07/13 07:20:32;;;;;;;3.17;1.80;;;;;;;24.58;51.36;99342.28;5104392;28;20020;-63
2022/07/13 07:22:57;;;;;;;8.82;2.42;;;;;;;24.52;51.97;99338.38;5104634;28;20031;-63
2022/07/13 07:25:23;;;;;;;3.72;2.40;;;;;;;24.40;52.91;99347.34;5104194;28;20085;-64
2022/07/13 07:27:50;;;;;;;3.92;2.30;;;;;;;24.32;52.25;99341.88;5104353;28;20040;-64
2022/07/13 07:30:16;;;;;;;3.22;1.90;;;;;;;24.37;52.53;99342.31;5104363;28;20393;-64
2022/07/13 07:32:41;;;;;;;6.55;2.30;;;;;;;24.58;52.63;99342.28;5099101;28;20020;-65
2022/07/13 07:35:08;;;;;;;4.75;2.40;;;;;;;24.73;51.76;99333.06;5085659;28;20074;-64
2022/07/13 07:37:34;;;;;;;5.07;2.33;;;;;;;24.81;52.62;99329.75;5101939;28;20070;-64
2022/07/13 07:40:00;;;;;;;4.95;2.50;;;;;;;24.88;52.10;99327.41;5104020;28;20027;-65
2022/07/13 07:42:25;;;;;;;5.80;2.42;;;;;;;24.70;52.43;99324.53;5104177;28;20091;-65
2022/07/13 07:44:51;;;;;;;2.30;1.83;;;;;;;24.28;50.46;99331.56;5104077;28;20031;-64
2022/07/13 07:47:17;;;;;;;5.68;2.58;;;;;;;24.22;51.94;99324.13;5103846;28;20087;-66
2022/07/13 07:49:43;;;;;;;4.38;2.63;;;;;;;24.32;52.17;99337.41;5103951;28;20074;-66
2022/07/13 07:52:09;;;;;;;6.13;2.42;;;;;;;24.19;52.47;99334.13;5104049;28;20040;-65
2022/07/13 07:54:35;;;;;;;6.18;3.00;;;;;;;24.16;53.32;99337.00;5103864;28;20241;-65
2022/07/13 07:57:01;;;;;;;3.58;2.28;;;;;;;24.16;52.38;99335.22;5102486;28;20024;-65
2022/07/13 07:59:27;;;;;;;6.13;2.33;;;;;;;24.02;52.37;99339.03;5103174;28;20231;-65
2022/07/13 08:01:53;;;;;;;5.60;2.88;;;;;;;24.01;53.24;99328.56;5103912;28;20032;-65
2022/07/13 08:04:18;;;;;;;3.28;2.42;;;;;;;23.82;53.06;99335.34;5103726;28;20342;-64
2022/07/13 08:06:44;;;;;;;4.93;2.58;;;;;;;23.47;54.44;99335.59;5103788;28;20330;-65
2022/07/13 08:09:10;;;;;;;4.43;2.30;;;;;;;23.81;54.92;99341.59;5103437;28;20043;-65
2022/07/13 08:11:35;;;;;;;4.35;2.80;;;;;;;23.79;55.09;99346.19;5102671;28;20087;-65
2022/07/13 08:14:01;;;;;;;5.97;2.70;;;;;;;23.55;56.42;99347.22;5103637;28;20228;-65
2022/07/13 08:16:27;;;;;;;5.03;2.70;;;;;;;23.37;56.36;99344.28;5103569;28;20020;-65
2022/07/13 08:18:54;;;;;;;3.67;2.87;;;;;;;23.41;56.95;99347.50;5102922;28;20028;-65
2022/07/13 08:21:19;;;;;;;6.00;2.97;;;;;;;23.14;58.67;99348.75;5103257;28;20032;-65
2022/07/13 08:23:51;;;;;;;4.03;2.85;;;;;;;22.80;60.93;99348.72;5103452;28;20354;-65
2022/07/13 08:26:24;;;;;;;5.90;3.22;;;;;;;22.81;62.36;99345.13;5101755;28;20039;-65
2022/07/13 08:28:51;;;;;;;4.20;3.00;;;;;;;22.71;62.16;99346.81;5102104;28;20032;-64
2022/07/13 08:31:17;;;;;;;5.55;2.70;;;;;;;22.57;60.45;99343.44;5103169;28;20067;-64
2022/07/13 08:39:12;;;;;;;3.75;2.40;;;;;;;22.48;60.25;99328.31;5102832;28;20024;-65
2022/07/13 08:41:39;;;;;;;3.03;2.65;;;;;;;22.71;59.93;99328.31;5103163;28;20325;-65
2022/07/13 08:44:05;;;;;;;7.88;3.03;;;;;;;22.53;64.25;99344.63;5103210;28;20028;-63
2022/07/13 08:46:30;;;;;;;8.45;3.85;;;;;;;22.15;67.57;99337.81;5098833;28;20561;-64
2022/07/13 08:48:57;;;;;;;10.93;4.25;;;;;;;22.15;70.01;99332.53;5101031;28;20031;-64
2022/07/13 08:51:24;;;;;;;8.52;3.83;;;;;;;22.15;70.91;99329.88;5102675;28;20040;-64
2022/07/13 08:53:51;;;;;;;6.70;3.28;;;;;;;21.89;71.39;99337.13;5102162;28;20073;-64
2022/07/13 08:56:18;;;;;;;7.78;3.22;;;;;;;21.93;69.62;99317.47;5100912;28;20054;-65
2022/07/13 08:58:43;;;;;;;5.97;3.35;;;;;;;22.12;70.49;99337.19;5084121;28;20031;-65
2022/07/13 09:01:10;;;;;;;4.40;3.35;;;;;;;21.82;70.17;99331.47;5101459;28;20039;-64
2022/07/13 09:03:36;;;;;;;7.82;3.28;;;;;;;21.80;70.55;99338.63;5095382;28;20035;-63
2022/07/13 09:06:03;;;;;;;5.32;2.53;;;;;;;21.84;65.81;99336.63;5102783;28;20028;-64
2022/07/13 09:08:28;;;;;;;3.75;2.42;;;;;;;21.92;62.20;99338.66;5102895;28;20020;-64
2022/07/13 09:10:59;;;;;;;5.70;2.67;;;;;;;22.09;65.05;99348.81;5101588;28;20055;-64
2022/07/13 09:13:43;;;;;;;6.10;2.63;;;;;;;22.19;66.01;99344.53;5102784;28;20032;-64
2022/07/13 09:16:13;;;;;;;8.30;2.67;;;;;;;21.96;65.74;99341.00;5102734;28;20296;-65
2022/07/13 09:18:38;;;;;;;4.55;2.50;;;;;;;21.93;64.57;99332.44;5101710;28;20024;-64
2022/07/13 09:21:04;;;;;;;4.43;3.15;;;;;;;21.88;64.73;99332.81;5101558;28;20212;-63
2022/07/13 09:23:30;;;;;;;5.20;3.15;;;;;;;21.83;66.60;99342.84;5100914;28;20309;-64
2022/07/13 09:25:56;;;;;;;8.73;3.85;;;;;;;21.68;65.82;99335.09;5102042;28;20365;-64
2022/07/13 09:28:21;;;;;;;4.53;2.90;;;;;;;21.69;63.24;99328.88;5102503;28;20095;-63
2022/07/13 09:30:47;;;;;;;7.40;3.28;;;;;;;21.69;64.08;99338.56;5102253;28;20024;-64
2022/07/13 09:33:12;;;;;;;7.78;3.30;;;;;;;21.70;63.88;99337.63;5102505;28;20035;-64
2022/07/13 09:35:51;;;;;;;5.72;3.20;;;;;;;21.89;64.59;99323.94;5102426;28;20032;-64
2022/07/13 09:38:28;;;;;;;6.35;3.42;;;;;;;22.04;65.60;99329.84;5102139;28;20050;-64
2022/07/13 09:40:54;;;;;;;7.40;3.15;;;;;;;22.13;64.47;99312.50;5102161;28;20020;-64
2022/07/13 09:46:10;;;;;;;4.22;3.25;;;;;;;22.09;64.40;99300.50;5101722;28;20062;-64
2022/07/13 09:48:39;;;;;;;;;;;;;;;22.31;63.56;99297.06;5102611;28;20028;-64
2022/07/13 09:51:05;;;;;;;10.55;3.53;;;;;;;22.09;64.41;99289.94;5102200;28;19926;-64
2022/07/13 09:53:34;;;;;;;6.28;2.72;;;;;;;22.43;64.22;99303.22;5102321;28;20118;-64
2022/07/13 09:56:01;;;;;;;8.02;2.85;;;;;;;22.74;63.99;99307.78;5102280;28;20044;-64
2022/07/13 09:58:32;;;;;;;5.22;2.90;;;;;;;22.57;62.88;99295.94;5101429;28;20035;-64
2022/07/13 10:00:59;;;;;;;2.72;2.53;;;;;;;22.17;62.79;99296.31;5092506;28;20328;-64
2022/07/13 10:03:28;;;;;;;5.35;2.40;;;;;;;21.96;61.21;99258.38;5101707;28;20091;-64
2022/07/13 10:05:54;;;;;;;3.75;2.45;;;;;;;22.22;61.88;99294.16;5100661;28;20042;-64
2022/07/13 10:08:21;;;;;;;3.75;2.15;;;;;;;22.30;61.31;99290.09;5100688;28;20020;-63
2022/07/13 10:10:47;;;;;;;4.25;2.20;;;;;;;22.65;60.39;99283.94;5102068;28;20121;-64
2022/07/13 10:13:13;;;;;;;4.43;2.42;;;;;;;22.99;60.19;99287.38;5095953;28;20088;-64
2022/07/13 10:15:40;;;;;;;4.07;2.28;;;;;;;22.87;59.43;99283.06;5093012;28;20031;-64
2022/07/13 10:18:09;;;;;;;5.80;2.28;;;;;;;22.52;58.73;99281.41;5091942;28;20020;-62
2022/07/13 10:20:39;;;;;;;5.28;2.20;;;;;;;22.92;58.76;99291.47;5100408;28;20035;-67
2022/07/13 10:23:05;;;;;;;6.55;2.78;;;;;;;22.89;57.00;99281.16;5101890;28;20050;-66
2022/07/13 10:25:45;;;;;;;6.43;3.05;;;;;;;23.27;57.82;99277.25;5105593;28;20640;-66
2022/07/13 10:28:13;;;;;;;5.95;2.55;;;;;;;23.42;58.50;99276.00;5113393;28;20027;-68
2022/07/13 10:30:39;;;;;;;5.65;2.60;;;;;;;23.46;57.40;99265.19;5121049;28;20046;-67
2022/07/13 10:33:22;;;;;;;5.22;2.53;;;;;;;23.53;58.16;99272.50;5098446;28;20121;-67
2022/07/13 10:35:49;;;;;;;5.38;2.78;;;;;;;23.27;58.59;99270.19;5100911;28;20036;-65
2022/07/13 10:38:18;;;;;;;5.43;2.92;;;;;;;23.23;59.67;99268.75;5105578;28;20307;-66
2022/07/13 10:40:44;;;;;;;6.93;3.00;;;;;;;23.39;59.31;99257.75;5103825;28;20073;-68
2022/07/13 10:43:11;;;;;;;11.00;2.85;;;;;;;23.28;59.09;99260.44;5105502;28;20059;-65
2022/07/13 10:45:38;;;;;;;6.80;3.25;;;;;;;23.45;59.86;99253.78;5104496;28;20020;-66
2022/07/13 10:48:17;;;;;;;6.88;2.95;;;;;;;23.39;59.48;99257.75;5104904;28;20032;-67
2022/07/13 10:50:47;;;;;;;8.52;3.17;;;;;;;23.50;59.59;99250.75;5084814;28;20029;-68
2022/07/13 10:53:16;;;;;;;3.88;2.50;;;;;;;23.34;58.29;99243.25;5102449;28;20027;-67
2022/07/13 10:55:46;;;;;;;4.05;2.75;;;;;;;23.09;58.45;99216.16;5105010;28;20032;-66
2022/07/13 10:58:30;;;;;;;6.18;2.67;;;;;;;22.95;58.00;99251.59;5105212;28;20024;-67
2022/07/13 11:01:01;;;;;;;9.10;2.78;;;;;;;23.23;58.23;99247.63;5104475;28;20039;-67
2022/07/13 11:03:35;;;;;;;5.53;2.83;;;;;;;23.38;58.81;99253.44;5104518;28;20032;-65
2022/07/13 11:06:08;;;;;;;3.95;2.13;;;;;;;23.07;57.96;99216.28;5104878;28;20429;-66
2022/07/13 11:08:35;;;;;;;6.47;2.50;;;;;;;23.56;56.58;99247.63;5102160;28;20379;-65
2022/07/13 11:11:18;;;;;;;4.28;2.47;;;;;;;23.39;56.57;99231.34;5104328;28;20591;-65
2022/07/13 11:13:45;;;;;;;4.38;2.58;;;;;;;23.51;57.10;99237.41;5102879;28;20205;-65
2022/07/13 11:16:14;;;;;;;5.35;2.63;;;;;;;23.52;56.99;99240.91;5104133;28;20036;-65
2022/07/13 11:18:41;;;;;;;5.10;2.53;;;;;;;23.60;56.48;99230.50;5104039;28;20249;-66
2022/07/13 11:21:13;;;;;;;6.25;2.47;;;;;;;23.63;57.96;99240.84;5103456;28;20038;-64
2022/07/13 11:26:44;;;;;;;4.70;2.70;;;;;;;23.81;56.09;99237.63;5102788;28;20117;-64
2022/07/13 11:29:22;;;;;;;3.97;2.22;;;;;;;23.90;54.81;99229.78;5103938;28;20036;-65
2022/07/13 11:31:58;;;;;;;3.03;2.40;;;;;;;24.04;55.06;99225.13;5102687;28;20136;-65
2022/07/13 11:34:26;;;;;;;4.65;2.22;;;;;;;24.18;52.91;99230.06;5103374;28;20024;-65
2022/07/13 11:36:53;;;;;;;2.33;2.00;;;;;;;24.32;54.76;99217.47;5103281;28;20065;-64
2022/07/13 11:39:23;;;;;;;2.35;2.15;;;;;;;24.52;53.87;99216.56;5103949;28;20080;-66
2022/07/13 11:41:48;;;;;;;4.68;2.28;;;;;;;24.53;52.52;99218.25;5104322;28;20095;-65